Holcomb, NY (14469)

12:58 AM EST on March 02, 2015 (GMT -0500)
Bristol Hills | Change Station
CLOSE
Current Station
Personal Weather Station
Location: East Bloomfield, NY
Elevation: 1230 ft
Nearby Weather Stations

Elev 1230 ft 42.87 °N, 77.44 °W | Updated 3 minutes ago

Snow
Snow
22.0 °F
Feels Like 17 °F
N
4.0
Wind Variable Wind from West
Gusts 15.0 mph

Today
High -- | Low -- °F
--% Chance of Precip.
Yesterday
High -- | Low -- °F
Precip. -- in
6:44 AM 6:00 PM
Waxing Gibbous, 89% visible
Pressure 30.15 in
Visibility 8.0 miles
Clouds Overcast 1200 ft
Windchill 17 °F
Dew Point 20 °F
Humidity 93%
Rainfall 0.00 in
Snow Depth Not available.
UV 0 out of 12
Pollen .50 out of 12
Air Quality Not available.
Flu Activity Not available.
METAR KROC 020554Z 28010KT 8SM -SN OVC012 M04/M07 A3012 RMK AO2 SLP209 4/014 P0000 60001 T10441072 11033 21044 55004

More Conditions Fewer Conditions

Pressure 30.15 in
Visibility 8.0 miles
Clouds Overcast 1200 ft
Windchill 17 °F
Dew Point 20 °F
Humidity 93%
Rainfall 0.00 in
Snow Depth Not available.
UV 0 out of 12
Pollen .50 out of 12
Air Quality Not available.
Flu Activity Not available.
METAR KROC 020554Z 28010KT 8SM -SN OVC012 M04/M07 A3012 RMK AO2 SLP209 4/014 P0000 60001 T10441072 11033 21044 55004

More Conditions Fewer Conditions

10-Day Weather Forecast

Almanac

Astronomy

Mar. 02, 2015 Rise Set
Actual Time
Civil Twilight
Nautical Twilight
Astronomical Twilight
Moon
Length of Visible Light
Length of Day
Tomorrow will be .
, % of the Moon is Illuminated

Today's Extremes

State Highs State Lows

Community

WunderPhotos

Upload Photos

1,801,735 photos uploaded!

WunderBlogs® & News

Nearby

Air Quality

  Air Quality AQ Index Pollutant
Not available.

Snow Depth

Station Depth Elevation

Earthquake Activity

City Distance Mag. Time & Date
Minimum magnitude displayed is 2.5.

Coastal Water Temperatures

Place Temperature

Nearby Weather Stations